Time;durP1;ratioP1;P1;durP2;ratioP2;P2;SDS_P1;SDS_P2;PMS_P1;PMS_P2;Temp;Humidity;BMP_temperature;BMP_pressure;BME280_temperature;BME280_humidity;BME280_pressure;Samples;Min_cycle;Max_cycle;Signal;HPM_P1;HPM_P2
2024/01/26 00:01:57;;;;;;;108.70;31.05;;;;;;;;;;5052726;28;20559;-77
2024/01/26 00:04:23;;;;;;;111.55;31.50;;;;;;;;;;5051944;28;20051;-78
2024/01/26 00:06:49;;;;;;;131.52;33.83;;;;;;;;;;5045413;28;20044;-78
2024/01/26 00:09:15;;;;;;;109.60;29.80;;;;;;;;;;5049909;28;20093;-78
2024/01/26 00:11:42;;;;;;;115.15;31.27;;;;;;;;;;5068813;28;20039;-78
2024/01/26 00:14:09;;;;;;;123.85;29.90;;;;;;;;;;5049387;28;20039;-79
2024/01/26 00:16:37;;;;;;;102.50;29.42;;;;;;;;;;5072000;28;20040;-79
2024/01/26 00:19:03;;;;;;;120.28;33.42;;;;;;;;;;5065761;28;20399;-79
2024/01/26 00:21:29;;;;;;;112.35;29.92;;;;;;;;;;5051329;28;20047;-79
2024/01/26 00:23:55;;;;;;;103.65;28.13;;;;;;;;;;5053557;28;20036;-79
2024/01/26 00:26:21;;;;;;;128.05;34.10;;;;;;;;;;5052489;28;20063;-79
2024/01/26 00:28:48;;;;;;;126.03;33.67;;;;;;;;;;5055944;28;20035;-79
2024/01/26 00:31:16;;;;;;;109.57;30.33;;;;;;;;;;5043420;28;20060;-78
2024/01/26 00:33:42;;;;;;;114.30;31.15;;;;;;;;;;5061914;28;20037;-79
2024/01/26 00:36:08;;;;;;;113.63;29.95;;;;;;;;;;5068227;28;20035;-79
2024/01/26 00:38:34;;;;;;;113.63;32.67;;;;;;;;;;5066249;28;20725;-79
2024/01/26 00:41:00;;;;;;;118.97;34.15;;;;;;;;;;5036614;28;20040;-79
2024/01/26 00:43:27;;;;;;;120.38;33.90;;;;;;;;;;5046660;28;20036;-77
2024/01/26 00:45:53;;;;;;;121.90;32.15;;;;;;;;;;5052921;28;20412;-78
2024/01/26 00:48:19;;;;;;;112.80;33.25;;;;;;;;;;5067816;28;20441;-76
2024/01/26 00:50:46;;;;;;;115.75;34.20;;;;;;;;;;5046552;28;20072;-77
2024/01/26 00:53:12;;;;;;;116.60;33.22;;;;;;;;;;5036105;28;20119;-77
2024/01/26 00:55:38;;;;;;;115.32;31.83;;;;;;;;;;5032129;28;20090;-76
2024/01/26 00:58:05;;;;;;;128.43;36.45;;;;;;;;;;5045642;28;20040;-76
2024/01/26 01:00:31;;;;;;;128.88;32.50;;;;;;;;;;5032224;28;20495;-77
2024/01/26 01:02:58;;;;;;;103.43;29.27;;;;;;;;;;5068630;28;20067;-77
2024/01/26 01:05:24;;;;;;;125.43;35.97;;;;;;;;;;5034438;28;20079;-77
2024/01/26 01:07:50;;;;;;;122.60;35.83;;;;;;;;;;5071469;28;20063;-76
2024/01/26 01:10:16;;;;;;;123.20;33.50;;;;;;;;;;5045762;28;20050;-76
2024/01/26 01:12:43;;;;;;;110.55;34.17;;;;;;;;;;5048639;28;20454;-76
2024/01/26 01:15:12;;;;;;;115.78;33.17;;;;;;;;;;5068501;28;20040;-76
2024/01/26 01:17:43;;;;;;;130.77;36.20;;;;;;;;;;5051942;28;20128;-76
2024/01/26 01:20:10;;;;;;;127.70;39.92;;;;;;;;;;5049211;28;20043;-77
2024/01/26 01:22:40;;;;;;;126.32;34.35;;;;;;;;;;5054928;28;20036;-77
2024/01/26 01:25:06;;;;;;;130.38;40.15;;;;;;;;;;5047878;28;20044;-76
2024/01/26 01:27:32;;;;;;;103.93;32.53;;;;;;;;;;5064012;28;20506;-76
2024/01/26 01:29:59;;;;;;;117.95;36.45;;;;;;;;;;5066785;28;20039;-77
2024/01/26 01:32:25;;;;;;;118.55;36.47;;;;;;;;;;5064840;28;20060;-77
2024/01/26 01:34:54;;;;;;;115.85;35.60;;;;;;;;;;5067022;28;20453;-76
2024/01/26 01:37:20;;;;;;;107.15;34.33;;;;;;;;;;5054053;28;20044;-76
2024/01/26 01:39:46;;;;;;;113.15;33.83;;;;;;;;;;5067197;28;20044;-76
2024/01/26 01:42:15;;;;;;;124.13;38.10;;;;;;;;;;5077652;28;20044;-76
2024/01/26 01:44:45;;;;;;;110.07;35.47;;;;;;;;;;5058589;28;20043;-76
2024/01/26 01:47:12;;;;;;;111.82;35.22;;;;;;;;;;5041918;28;20122;-76
2024/01/26 01:49:39;;;;;;;103.05;32.83;;;;;;;;;;5062683;28;20050;-76
2024/01/26 01:52:07;;;;;;;112.53;35.78;;;;;;;;;;5074577;28;20085;-77
2024/01/26 01:54:33;;;;;;;118.13;34.25;;;;;;;;;;5054698;28;20040;-77
2024/01/26 01:57:03;;;;;;;112.35;37.17;;;;;;;;;;5043388;28;20046;-76
2024/01/26 01:59:29;;;;;;;110.55;35.40;;;;;;;;;;5068422;28;20125;-77
2024/01/26 02:01:55;;;;;;;99.53;35.63;;;;;;;;;;5052585;28;20078;-78
2024/01/26 02:04:22;;;;;;;107.78;36.63;;;;;;;;;;5067700;28;20054;-77
2024/01/26 02:06:58;;;;;;;109.30;34.63;;;;;;;;;;5053501;28;20068;-76
2024/01/26 02:09:25;;;;;;;104.60;33.28;;;;;;;;;;5070404;28;20069;-76
2024/01/26 02:11:52;;;;;;;91.00;34.08;;;;;;;;;;5068717;28;20039;-76
2024/01/26 02:14:18;;;;;;;92.57;35.67;;;;;;;;;;5069333;28;20536;-77
2024/01/26 02:16:57;;;;;;;78.97;28.23;;;;;;;;;;5049130;28;20043;-76
2024/01/26 02:19:24;;;;;;;87.13;33.65;;;;;;;;;;5060712;28;20051;-77
2024/01/26 02:21:50;;;;;;;78.03;30.52;;;;;;;;;;5054097;28;20043;-77
2024/01/26 02:24:16;;;;;;;95.15;33.88;;;;;;;;;;5070509;28;20031;-76
2024/01/26 02:26:43;;;;;;;79.18;29.35;;;;;;;;;;5067392;28;20062;-77
2024/01/26 02:29:09;;;;;;;80.20;30.73;;;;;;;;;;5063019;28;20750;-77
2024/01/26 02:31:35;;;;;;;73.30;29.00;;;;;;;;;;5069438;28;20052;-76
2024/01/26 02:34:01;;;;;;;73.45;30.50;;;;;;;;;;5053434;28;20064;-77
2024/01/26 02:36:32;;;;;;;64.47;30.02;;;;;;;;;;5052138;28;20051;-77
2024/01/26 02:38:58;;;;;;;60.17;27.20;;;;;;;;;;5041120;28;20116;-77
2024/01/26 02:41:25;;;;;;;60.65;29.02;;;;;;;;;;5056159;28;20032;-76
2024/01/26 02:43:51;;;;;;;51.45;24.25;;;;;;;;;;5045903;28;20032;-77
2024/01/26 02:46:17;;;;;;;60.65;31.08;;;;;;;;;;5054933;28;20063;-77
2024/01/26 02:48:44;;;;;;;53.15;28.30;;;;;;;;;;5049952;28;20044;-77
2024/01/26 02:51:10;;;;;;;51.15;28.17;;;;;;;;;;5058715;28;20055;-77
2024/01/26 02:53:40;;;;;;;56.47;28.00;;;;;;;;;;5035495;28;20043;-77
2024/01/26 02:56:07;;;;;;;52.25;26.70;;;;;;;;;;5066391;28;20154;-77
2024/01/26 02:58:34;;;;;;;55.95;28.65;;;;;;;;;;5071424;28;20067;-77
2024/01/26 03:01:01;;;;;;;49.35;28.80;;;;;;;;;;5063893;28;20135;-77
2024/01/26 03:03:27;;;;;;;46.80;27.45;;;;;;;;;;5067213;28;20055;-76
2024/01/26 03:05:53;;;;;;;54.70;24.55;;;;;;;;;;5062304;28;20040;-77
2024/01/26 03:08:36;;;;;;;46.50;25.70;;;;;;;;;;5067097;28;20776;-85
2024/01/26 03:11:03;;;;;;;45.97;26.45;;;;;;;;;;5066238;28;20097;-79
2024/01/26 03:13:29;;;;;;;46.63;27.25;;;;;;;;;;5054322;28;20040;-77
2024/01/26 03:15:55;;;;;;;48.15;27.35;;;;;;;;;;5051678;28;20040;-78
2024/01/26 03:18:21;;;;;;;49.30;28.00;;;;;;;;;;5063192;28;20126;-78
2024/01/26 03:20:48;;;;;;;48.33;29.48;;;;;;;;;;5063878;28;20046;-78
2024/01/26 03:23:14;;;;;;;49.67;27.48;;;;;;;;;;5067459;28;20195;-78
2024/01/26 03:25:40;;;;;;;46.55;26.50;;;;;;;;;;5057820;28;20048;-78
2024/01/26 03:28:06;;;;;;;51.28;29.60;;;;;;;;;;5053697;28;20043;-79
2024/01/26 03:30:33;;;;;;;46.55;29.02;;;;;;;;;;5067787;28;20498;-78
2024/01/26 03:32:59;;;;;;;43.08;27.48;;;;;;;;;;5065456;28;20460;-78
2024/01/26 03:35:26;;;;;;;44.10;26.90;;;;;;;;;;5068005;28;20166;-78
2024/01/26 03:37:52;;;;;;;48.58;26.77;;;;;;;;;;5042037;28;20098;-77
2024/01/26 03:40:18;;;;;;;43.08;27.48;;;;;;;;;;5037033;28;20047;-77
2024/01/26 03:42:44;;;;;;;33.85;22.63;;;;;;;;;;5052106;28;20040;-78
2024/01/26 03:45:12;;;;;;;36.05;21.75;;;;;;;;;;5067552;28;20052;-78
2024/01/26 03:47:38;;;;;;;40.45;25.20;;;;;;;;;;5067512;28;20118;-76
2024/01/26 03:50:06;;;;;;;41.92;26.17;;;;;;;;;;5052946;28;20434;-77
2024/01/26 03:52:32;;;;;;;39.83;24.23;;;;;;;;;;5035943;28;20472;-76
2024/01/26 03:54:58;;;;;;;39.97;22.20;;;;;;;;;;5032736;28;20545;-76
2024/01/26 03:57:24;;;;;;;36.63;20.83;;;;;;;;;;5051487;28;20040;-76
2024/01/26 03:59:50;;;;;;;38.13;19.92;;;;;;;;;;5046760;28;20031;-75
2024/01/26 04:02:17;;;;;;;40.10;22.77;;;;;;;;;;5064536;28;20071;-75
2024/01/26 04:04:44;;;;;;;36.97;23.02;;;;;;;;;;5048431;28;20439;-76
2024/01/26 04:07:11;;;;;;;40.38;24.08;;;;;;;;;;5048416;28;20032;-75
2024/01/26 04:09:37;;;;;;;42.00;24.10;;;;;;;;;;5066015;28;20044;-76
2024/01/26 04:12:03;;;;;;;36.22;18.65;;;;;;;;;;5049173;28;20043;-77
2024/01/26 04:14:29;;;;;;;36.95;21.88;;;;;;;;;;5052098;28;20039;-75
2024/01/26 04:16:55;;;;;;;36.42;21.52;;;;;;;;;;5051400;28;20159;-76
2024/01/26 04:19:21;;;;;;;38.92;22.17;;;;;;;;;;5063783;28;20039;-75
2024/01/26 04:21:49;;;;;;;42.08;21.42;;;;;;;;;;5069462;28;20032;-75
2024/01/26 04:24:16;;;;;;;35.85;19.40;;;;;;;;;;5066663;28;20043;-75
2024/01/26 04:26:42;;;;;;;35.20;20.60;;;;;;;;;;5046008;28;20045;-75
2024/01/26 04:29:08;;;;;;;38.05;22.15;;;;;;;;;;5037448;28;20081;-75
2024/01/26 04:31:34;;;;;;;42.67;24.17;;;;;;;;;;5054850;28;20109;-75
2024/01/26 04:34:00;;;;;;;36.53;19.40;;;;;;;;;;5066293;28;20044;-75
2024/01/26 04:36:27;;;;;;;36.50;19.75;;;;;;;;;;5028662;28;20097;-76
2024/01/26 04:38:53;;;;;;;39.88;22.05;;;;;;;;;;5030719;28;20044;-75
2024/01/26 04:41:19;;;;;;;25.75;16.83;;;;;;;;;;5050557;28;20123;-75
2024/01/26 04:43:45;;;;;;;35.58;21.02;;;;;;;;;;5032200;28;20044;-76
2024/01/26 04:46:11;;;;;;;39.22;20.98;;;;;;;;;;5068262;28;20050;-75
2024/01/26 04:48:37;;;;;;;39.53;22.23;;;;;;;;;;5067075;28;20058;-75
2024/01/26 04:51:04;;;;;;;37.30;23.00;;;;;;;;;;5050612;28;20036;-75
2024/01/26 04:53:30;;;;;;;36.65;21.83;;;;;;;;;;5047681;28;20365;-76
2024/01/26 04:55:56;;;;;;;37.00;20.10;;;;;;;;;;5028586;28;20122;-75
2024/01/26 04:58:22;;;;;;;51.63;24.30;;;;;;;;;;5064859;28;20090;-75
2024/01/26 05:00:48;;;;;;;41.97;23.60;;;;;;;;;;5063759;28;20043;-76
2024/01/26 05:03:14;;;;;;;42.55;22.60;;;;;;;;;;5058483;28;20120;-76
2024/01/26 05:05:40;;;;;;;37.90;20.58;;;;;;;;;;5065457;28;20492;-76
2024/01/26 05:08:07;;;;;;;37.78;22.70;;;;;;;;;;5063585;28;20032;-76
2024/01/26 05:10:33;;;;;;;40.03;23.02;;;;;;;;;;5041164;28;20443;-76
2024/01/26 05:12:59;;;;;;;38.75;20.92;;;;;;;;;;5031778;28;20043;-77
2024/01/26 05:15:25;;;;;;;38.28;22.55;;;;;;;;;;5067576;28;20043;-75
2024/01/26 05:17:51;;;;;;;42.03;25.48;;;;;;;;;;5055794;28;20028;-75
2024/01/26 05:20:17;;;;;;;39.97;24.80;;;;;;;;;;5070207;28;20096;-77
2024/01/26 05:22:44;;;;;;;33.55;22.02;;;;;;;;;;5067462;28;20141;-76
2024/01/26 05:25:13;;;;;;;43.92;25.02;;;;;;;;;;5070570;28;20044;-77
2024/01/26 05:27:41;;;;;;;31.08;21.95;;;;;;;;;;5053268;28;20135;-77
2024/01/26 05:30:07;;;;;;;35.00;21.75;;;;;;;;;;5070656;28;20067;-77
2024/01/26 05:32:33;;;;;;;33.35;18.17;;;;;;;;;;5035246;28;20186;-76
2024/01/26 05:34:59;;;;;;;34.47;21.85;;;;;;;;;;5037735;28;20052;-76
2024/01/26 05:37:25;;;;;;;33.72;22.15;;;;;;;;;;5035611;28;20044;-77
2024/01/26 05:39:51;;;;;;;30.15;18.83;;;;;;;;;;5044102;28;20036;-77
2024/01/26 05:42:17;;;;;;;26.92;16.92;;;;;;;;;;5039826;28;20483;-77
2024/01/26 05:44:43;;;;;;;29.50;20.70;;;;;;;;;;5069249;28;20396;-78
2024/01/26 05:47:09;;;;;;;28.75;18.80;;;;;;;;;;5052436;28;20173;-77
2024/01/26 05:49:35;;;;;;;35.70;21.38;;;;;;;;;;5052416;28;20032;-77
2024/01/26 05:52:02;;;;;;;33.17;22.08;;;;;;;;;;5051161;28;20046;-76
2024/01/26 05:54:28;;;;;;;34.38;20.85;;;;;;;;;;5072055;28;20074;-76
2024/01/26 05:56:54;;;;;;;32.88;23.20;;;;;;;;;;5069230;28;20032;-77
2024/01/26 05:59:20;;;;;;;35.30;22.45;;;;;;;;;;5069257;28;20055;-77
2024/01/26 06:01:46;;;;;;;36.08;23.50;;;;;;;;;;5041939;28;20131;-76
2024/01/26 06:04:12;;;;;;;38.88;24.70;;;;;;;;;;5056362;28;20039;-76
2024/01/26 06:06:39;;;;;;;32.55;20.60;;;;;;;;;;5067414;28;20450;-76
2024/01/26 06:09:05;;;;;;;42.22;23.30;;;;;;;;;;5046761;28;20044;-76
2024/01/26 06:11:33;;;;;;;48.03;28.20;;;;;;;;;;5052862;28;20032;-77
2024/01/26 06:14:02;;;;;;;35.58;25.67;;;;;;;;;;5073941;28;20047;-76
2024/01/26 06:16:28;;;;;;;39.22;23.15;;;;;;;;;;5090875;28;20054;-76
2024/01/26 06:18:54;;;;;;;51.83;27.90;;;;;;;;;;5076747;28;20048;-77
2024/01/26 06:21:20;;;;;;;44.20;25.42;;;;;;;;;;5051647;28;20119;-76
2024/01/26 06:23:46;;;;;;;35.38;20.88;;;;;;;;;;5038823;28;20161;-76
2024/01/26 06:26:12;;;;;;;39.22;21.58;;;;;;;;;;5067101;28;20178;-76
2024/01/26 06:28:38;;;;;;;44.15;23.90;;;;;;;;;;5050517;28;20043;-76
2024/01/26 06:31:04;;;;;;;39.58;25.50;;;;;;;;;;5036653;28;20036;-75
2024/01/26 06:33:30;;;;;;;28.95;20.13;;;;;;;;;;5056173;28;20074;-76
2024/01/26 06:35:56;;;;;;;33.22;19.40;;;;;;;;;;5035969;28;20122;-76
2024/01/26 06:38:23;;;;;;;32.20;18.10;;;;;;;;;;5054854;28;20043;-75
2024/01/26 06:40:49;;;;;;;36.15;20.92;;;;;;;;;;5050444;28;20407;-78
2024/01/26 06:43:16;;;;;;;36.83;21.60;;;;;;;;;;5055792;28;20042;-79
2024/01/26 06:45:43;;;;;;;39.28;24.33;;;;;;;;;;5053377;28;20045;-79
2024/01/26 06:48:09;;;;;;;38.85;22.98;;;;;;;;;;5058679;28;20411;-79
2024/01/26 06:50:36;;;;;;;41.38;23.15;;;;;;;;;;5043769;28;20130;-79
2024/01/26 06:53:02;;;;;;;34.10;20.50;;;;;;;;;;5055696;28;20040;-79
2024/01/26 06:55:28;;;;;;;35.75;22.20;;;;;;;;;;5040405;28;20490;-79
2024/01/26 06:57:54;;;;;;;35.88;21.83;;;;;;;;;;5051214;28;20050;-79
2024/01/26 07:00:20;;;;;;;37.33;23.45;;;;;;;;;;5055627;28;20173;-79
2024/01/26 07:02:46;;;;;;;35.60;22.60;;;;;;;;;;5038404;28;20036;-79
2024/01/26 07:05:12;;;;;;;37.05;19.80;;;;;;;;;;5036666;28;20435;-79
2024/01/26 07:07:38;;;;;;;47.17;21.50;;;;;;;;;;5050296;28;20418;-79
2024/01/26 07:10:04;;;;;;;35.45;20.52;;;;;;;;;;5073129;28;20070;-79
2024/01/26 07:12:30;;;;;;;30.60;18.98;;;;;;;;;;5058489;28;20394;-79
2024/01/26 07:14:57;;;;;;;40.67;22.88;;;;;;;;;;5057657;28;20186;-78
2024/01/26 07:17:23;;;;;;;23.50;14.77;;;;;;;;;;5070599;28;20123;-78
2024/01/26 07:19:49;;;;;;;31.95;18.15;;;;;;;;;;5071642;28;20163;-78
2024/01/26 07:22:15;;;;;;;30.63;18.83;;;;;;;;;;5039405;28;20058;-78
2024/01/26 07:24:41;;;;;;;26.10;14.52;;;;;;;;;;5039960;28;20169;-78
2024/01/26 07:27:07;;;;;;;34.08;20.13;;;;;;;;;;5050561;28;20036;-78
2024/01/26 07:29:33;;;;;;;18.23;11.45;;;;;;;;;;5055847;28;20039;-77
2024/01/26 07:31:59;;;;;;;32.00;15.65;;;;;;;;;;5069869;28;20112;-78
2024/01/26 07:34:25;;;;;;;27.30;16.75;;;;;;;;;;5037580;28;20395;-79
2024/01/26 07:36:51;;;;;;;24.98;13.90;;;;;;;;;;5038569;28;20127;-79
2024/01/26 07:39:19;;;;;;;18.80;13.25;;;;;;;;;;5053347;28;20040;-79
2024/01/26 07:41:45;;;;;;;22.98;14.63;;;;;;;;;;5073909;28;20505;-78
2024/01/26 07:44:11;;;;;;;15.65;10.95;;;;;;;;;;5071920;28;20043;-78
2024/01/26 07:46:41;;;;;;;19.38;10.88;;;;;;;;;;5073485;28;20558;-78
2024/01/26 07:49:07;;;;;;;12.55;7.40;;;;;;;;;;5077477;28;20100;-85
2024/01/26 07:51:34;;;;;;;17.75;8.15;;;;;;;;;;5072223;28;20055;-85
2024/01/26 07:54:00;;;;;;;11.48;7.85;;;;;;;;;;5060914;28;20047;-84
2024/01/26 07:56:26;;;;;;;11.27;7.22;;;;;;;;;;5050634;28;20134;-84
2024/01/26 07:58:52;;;;;;;9.45;5.43;;;;;;;;;;5056219;28;20036;-85
2024/01/26 08:01:18;;;;;;;10.35;6.78;;;;;;;;;;5075784;28;20035;-84
2024/01/26 08:03:45;;;;;;;11.07;7.03;;;;;;;;;;5054374;28;20130;-84
2024/01/26 08:06:11;;;;;;;11.05;6.65;;;;;;;;;;5053944;28;20043;-84
2024/01/26 08:08:37;;;;;;;12.77;8.00;;;;;;;;;;5051182;28;20028;-85
2024/01/26 08:11:05;;;;;;;13.27;7.85;;;;;;;;;;5039333;28;20044;-85
2024/01/26 08:13:31;;;;;;;17.13;9.60;;;;;;;;;;5055800;28;20387;-86
2024/01/26 08:15:57;;;;;;;10.35;7.05;;;;;;;;;;5069287;28;20105;-85
2024/01/26 08:18:23;;;;;;;13.93;7.65;;;;;;;;;;5039675;28;20564;-82
2024/01/26 08:20:49;;;;;;;13.05;6.88;;;;;;;;;;5052101;28;20085;-83
2024/01/26 08:23:15;;;;;;;10.55;6.82;;;;;;;;;;5064061;28;20039;-84
2024/01/26 08:25:41;;;;;;;15.05;8.23;;;;;;;;;;5072528;28;20062;-84
2024/01/26 08:28:07;;;;;;;12.05;6.57;;;;;;;;;;5053710;28;20093;-84
2024/01/26 08:30:35;;;;;;;14.80;7.95;;;;;;;;;;5062879;28;20036;-85
2024/01/26 08:33:01;;;;;;;6.25;4.47;;;;;;;;;;5063786;28;20272;-83
2024/01/26 08:35:27;;;;;;;9.55;6.00;;;;;;;;;;5074873;28;20135;-84
2024/01/26 08:37:53;;;;;;;11.00;6.30;;;;;;;;;;5046850;28;20531;-84
2024/01/26 08:40:20;;;;;;;8.27;4.07;;;;;;;;;;5058460;28;20198;-84
2024/01/26 08:42:47;;;;;;;9.70;5.25;;;;;;;;;;5079082;28;20044;-84
2024/01/26 08:45:13;;;;;;;5.90;4.43;;;;;;;;;;5079040;28;20036;-84
2024/01/26 08:47:39;;;;;;;4.28;3.50;;;;;;;;;;5054030;28;20043;-84
2024/01/26 08:50:05;;;;;;;15.10;5.82;;;;;;;;;;5052631;28;20381;-84
2024/01/26 08:52:32;;;;;;;8.38;5.55;;;;;;;;;;5046921;28;20075;-82
2024/01/26 08:54:58;;;;;;;6.18;4.22;;;;;;;;;;5048712;28;20040;-85
2024/01/26 08:57:25;;;;;;;7.78;4.15;;;;;;;;;;5056328;28;20047;-82
2024/01/26 08:59:51;;;;;;;5.72;3.17;;;;;;;;;;5041482;28;20043;-82
2024/01/26 09:02:17;;;;;;;6.07;4.07;;;;;;;;;;5072837;28;20058;-81
2024/01/26 09:04:43;;;;;;;6.72;3.85;;;;;;;;;;5058398;28;20054;-81
2024/01/26 09:07:09;;;;;;;6.55;4.03;;;;;;;;;;5035646;28;20040;-83
2024/01/26 09:09:35;;;;;;;15.30;7.13;;;;;;;;;;5079376;28;20036;-81
2024/01/26 09:12:01;;;;;;;10.77;6.55;;;;;;;;;;5071336;28;20044;-83
2024/01/26 09:14:29;;;;;;;13.93;6.35;;;;;;;;;;5050330;28;20031;-81
2024/01/26 09:16:55;;;;;;;14.38;8.20;;;;;;;;;;5057173;28;20047;-80
2024/01/26 09:19:21;;;;;;;22.27;8.65;;;;;;;;;;5060557;28;20032;-82
2024/01/26 09:21:47;;;;;;;15.15;6.35;;;;;;;;;;5058681;28;20468;-82
2024/01/26 09:24:13;;;;;;;17.10;2.63;;;;;;;;;;5077837;28;20081;-81
2024/01/26 09:26:41;;;;;;;5.65;1.45;;;;;;;;;;5048973;28;20035;-81
2024/01/26 09:29:07;;;;;;;12.02;1.77;;;;;;;;;;5072628;28;20623;-81
2024/01/26 09:31:33;;;;;;;8.95;1.58;;;;;;;;;;5058261;28;20043;-81
2024/01/26 09:34:00;;;;;;;9.48;2.03;;;;;;;;;;5076593;28;20052;-81
2024/01/26 09:36:26;;;;;;;9.43;1.65;;;;;;;;;;5068097;28;20131;-81
2024/01/26 09:38:52;;;;;;;8.50;1.50;;;;;;;;;;5056798;28;20035;-82
2024/01/26 09:41:19;;;;;;;8.95;1.25;;;;;;;;;;5061902;28;20154;-81
2024/01/26 09:43:45;;;;;;;9.02;1.92;;;;;;;;;;5062680;28;20400;-81
2024/01/26 09:46:12;;;;;;;11.68;2.47;;;;;;;;;;5049972;28;20546;-82
2024/01/26 09:48:39;;;;;;;17.00;3.85;;;;;;;;;;5035637;28;20039;-80
2024/01/26 09:51:06;;;;;;;19.42;2.35;;;;;;;;;;5065926;28;20047;-80
2024/01/26 09:53:34;;;;;;;10.50;2.30;;;;;;;;;;5071659;28;20480;-80
2024/01/26 09:56:00;;;;;;;14.88;2.30;;;;;;;;;;5084132;28;20035;-81
2024/01/26 09:58:27;;;;;;;17.90;2.30;;;;;;;;;;5043141;28;20093;-80
2024/01/26 10:00:55;;;;;;;19.50;2.35;;;;;;;;;;5077501;28;20138;-80
2024/01/26 10:03:24;;;;;;;23.45;2.80;;;;;;;;;;5065742;28;20044;-81
2024/01/26 10:05:50;;;;;;;26.15;3.03;;;;;;;;;;5059025;28;20112;-87
2024/01/26 10:08:16;;;;;;;17.83;2.70;;;;;;;;;;5063888;28;20044;-85
2024/01/26 10:10:42;;;;;;;23.58;2.58;;;;;;;;;;5052775;28;20488;-79
2024/01/26 10:13:09;;;;;;;27.33;3.78;;;;;;;;;;5044579;28;20109;-79
2024/01/26 10:15:36;;;;;;;30.55;3.92;;;;;;;;;;5058022;28;20044;-80
2024/01/26 10:18:02;;;;;;;18.13;2.47;;;;;;;;;;5060454;28;20079;-80
2024/01/26 10:20:28;;;;;;;30.58;3.20;;;;;;;;;;5065103;28;20097;-80
2024/01/26 10:22:54;;;;;;;29.17;3.80;;;;;;;;;;5067808;28;20051;-82
2024/01/26 10:25:21;;;;;;;31.80;3.75;;;;;;;;;;5067154;28;20047;-81
2024/01/26 10:27:47;;;;;;;26.20;4.13;;;;;;;;;;5058642;28;20039;-79
2024/01/26 10:30:14;;;;;;;32.03;3.70;;;;;;;;;;5065059;28;20119;-80
2024/01/26 10:32:40;;;;;;;34.95;4.00;;;;;;;;;;5071624;28;20569;-80
2024/01/26 10:35:07;;;;;;;36.33;4.72;;;;;;;;;;5084706;28;20142;-80
2024/01/26 10:37:37;;;;;;;27.98;5.20;;;;;;;;;;5051339;28;20047;-81
2024/01/26 10:40:09;;;;;;;38.40;4.50;;;;;;;;;;5049144;28;20492;-80
2024/01/26 10:42:36;;;;;;;24.38;4.05;;;;;;;;;;5063116;28;20395;-81
2024/01/26 10:45:04;;;;;;;21.90;3.80;;;;;;;;;;5060668;28;20498;-80
2024/01/26 10:47:33;;;;;;;31.25;3.80;;;;;;;;;;5044121;28;20456;-80
2024/01/26 10:50:05;;;;;;;19.00;3.47;;;;;;;;;;5059470;28;20033;-83
2024/01/26 10:52:34;;;;;;;22.20;3.50;;;;;;;;;;5067307;28;20097;-80
2024/01/26 10:55:01;;;;;;;23.13;3.25;;;;;;;;;;5070139;28;20040;-82
2024/01/26 10:57:27;;;;;;;25.35;3.83;;;;;;;;;;5087850;28;20116;-80
2024/01/26 10:59:54;;;;;;;27.20;4.50;;;;;;;;;;5080875;28;20143;-80
2024/01/26 11:02:31;;;;;;;18.40;2.83;;;;;;;;;;5058284;28;20183;-83
2024/01/26 11:05:07;;;;;;;31.08;5.18;;;;;;;;;;5049732;28;20032;-79
2024/01/26 11:07:37;;;;;;;36.40;3.50;;;;;;;;;;5063723;28;20053;-80
2024/01/26 11:10:05;;;;;;;25.25;3.97;;;;;;;;;;5058135;28;20040;-79
2024/01/26 11:12:34;;;;;;;23.80;3.53;;;;;;;;;;5071555;28;20058;-81
2024/01/26 11:15:09;;;;;;;23.40;4.07;;;;;;;;;;5075193;28;20039;-80
2024/01/26 11:17:43;;;;;;;29.00;3.80;;;;;;;;;;5070171;28;20055;-84
2024/01/26 11:20:20;;;;;;;30.85;4.75;;;;;;;;;;5055796;28;20109;-83
2024/01/26 11:22:46;;;;;;;28.48;3.95;;;;;;;;;;5059476;28;20570;-80
2024/01/26 11:25:22;;;;;;;23.30;4.03;;;;;;;;;;5056478;28;20063;-82
2024/01/26 11:27:57;;;;;;;19.05;3.63;;;;;;;;;;5057233;28;20047;-82
2024/01/26 11:30:24;;;;;;;23.55;4.05;;;;;;;;;;5076401;28;20039;-81
2024/01/26 11:32:51;;;;;;;24.88;3.83;;;;;;;;;;5086271;28;20392;-82
2024/01/26 11:35:18;;;;;;;22.98;3.70;;;;;;;;;;5064378;28;20040;-81
2024/01/26 11:37:44;;;;;;;25.33;3.20;;;;;;;;;;5067664;28;20047;-81
2024/01/26 11:40:10;;;;;;;20.00;3.15;;;;;;;;;;5078747;28;20048;-82
2024/01/26 11:42:37;;;;;;;24.00;4.47;;;;;;;;;;5056206;28;20443;-83
2024/01/26 11:45:16;;;;;;;18.85;4.07;;;;;;;;;;5074160;28;20040;-81
2024/01/26 11:47:43;;;;;;;25.23;5.82;;;;;;;;;;5059910;28;20047;-82
2024/01/26 11:50:09;;;;;;;30.08;4.00;;;;;;;;;;5042462;28;20068;-81
2024/01/26 11:52:39;;;;;;;20.05;4.40;;;;;;;;;;5040113;28;20044;-81
2024/01/26 11:55:06;;;;;;;35.40;4.32;;;;;;;;;;5047265;28;20098;-81
2024/01/26 11:57:32;;;;;;;19.13;4.18;;;;;;;;;;5057120;28;20097;-81
2024/01/26 11:59:59;;;;;;;27.58;4.10;;;;;;;;;;5074754;28;20035;-83
2024/01/26 12:02:26;;;;;;;18.77;3.85;;;;;;;;;;5072261;28;20044;-83
2024/01/26 12:04:52;;;;;;;28.10;3.65;;;;;;;;;;5077344;28;20040;-83
2024/01/26 12:07:18;;;;;;;23.95;4.70;;;;;;;;;;5079647;28;20072;-83
2024/01/26 12:09:45;;;;;;;30.85;4.82;;;;;;;;;;5054274;28;20035;-83
2024/01/26 12:12:11;;;;;;;27.40;4.28;;;;;;;;;;5086542;28;20043;-84
2024/01/26 12:14:37;;;;;;;31.88;4.15;;;;;;;;;;5078572;28;20100;-84
2024/01/26 12:17:04;;;;;;;20.75;3.38;;;;;;;;;;5083634;28;20066;-84
2024/01/26 12:19:31;;;;;;;23.48;4.63;;;;;;;;;;5052566;28;20609;-83
2024/01/26 12:21:58;;;;;;;24.63;3.75;;;;;;;;;;5083747;28;20389;-83
2024/01/26 12:24:24;;;;;;;25.10;4.40;;;;;;;;;;5036608;28;20044;-84
2024/01/26 12:26:51;;;;;;;29.40;4.28;;;;;;;;;;5067062;28;20048;-83
2024/01/26 12:29:17;;;;;;;19.80;3.35;;;;;;;;;;5072318;28;20371;-84
2024/01/26 12:31:43;;;;;;;32.72;5.03;;;;;;;;;;5060554;28;20495;-84
2024/01/26 12:34:16;;;;;;;23.67;4.32;;;;;;;;;;5062549;28;20075;-84
2024/01/26 12:36:42;;;;;;;28.17;4.78;;;;;;;;;;5036306;28;20040;-84
2024/01/26 12:39:09;;;;;;;35.22;5.82;;;;;;;;;;5074813;28;20050;-84
2024/01/26 12:41:35;;;;;;;37.58;5.88;;;;;;;;;;5068317;28;20768;-83
2024/01/26 12:44:01;;;;;;;35.08;4.25;;;;;;;;;;5074563;28;20089;-84
2024/01/26 12:46:27;;;;;;;38.25;6.43;;;;;;;;;;5073629;28;20404;-83
2024/01/26 12:48:54;;;;;;;28.90;4.18;;;;;;;;;;5066891;28;20526;-84
2024/01/26 12:51:20;;;;;;;29.45;5.10;;;;;;;;;;5052644;28;20097;-84
2024/01/26 12:53:48;;;;;;;30.27;4.30;;;;;;;;;;5085340;28;20052;-84
2024/01/26 12:56:14;;;;;;;26.08;4.00;;;;;;;;;;5074608;28;20097;-83
2024/01/26 12:58:40;;;;;;;35.95;4.38;;;;;;;;;;5070103;28;20036;-83
2024/01/26 13:01:06;;;;;;;30.25;3.75;;;;;;;;;;5060733;28;20048;-83
2024/01/26 13:03:32;;;;;;;27.13;4.20;;;;;;;;;;5044520;28;20503;-83
2024/01/26 13:05:58;;;;;;;21.55;4.03;;;;;;;;;;5070081;28;20043;-83
2024/01/26 13:08:25;;;;;;;31.05;4.93;;;;;;;;;;5061131;28;20036;-84
2024/01/26 13:10:51;;;;;;;27.65;4.20;;;;;;;;;;5062217;28;20076;-82
2024/01/26 13:13:17;;;;;;;30.25;5.35;;;;;;;;;;5063635;28;20036;-82
2024/01/26 13:15:43;;;;;;;29.40;4.40;;;;;;;;;;5065433;28;20040;-81
2024/01/26 13:18:12;;;;;;;28.77;4.57;;;;;;;;;;5074466;28;20050;-82
2024/01/26 13:20:38;;;;;;;26.10;3.55;;;;;;;;;;5068979;28;20480;-81
2024/01/26 13:23:05;;;;;;;35.90;4.55;;;;;;;;;;5070456;28;20522;-83
2024/01/26 13:25:31;;;;;;;30.88;5.18;;;;;;;;;;5059680;28;20063;-83
2024/01/26 13:27:57;;;;;;;30.05;3.60;;;;;;;;;;5032708;28;20075;-82
2024/01/26 13:30:23;;;;;;;25.98;3.72;;;;;;;;;;5074194;28;20048;-83
2024/01/26 13:32:49;;;;;;;22.50;2.88;;;;;;;;;;5040224;28;20044;-83
2024/01/26 13:35:15;;;;;;;24.52;3.55;;;;;;;;;;5062183;28;20040;-82
2024/01/26 13:37:41;;;;;;;20.48;3.80;;;;;;;;;;5075488;28;20488;-83
2024/01/26 13:40:07;;;;;;;24.30;4.05;;;;;;;;;;5063471;28;20066;-82
2024/01/26 13:42:34;;;;;;;20.33;3.45;;;;;;;;;;5043276;28;20040;-82
2024/01/26 13:45:00;;;;;;;28.67;4.57;;;;;;;;;;5045469;28;20467;-82
2024/01/26 13:47:27;;;;;;;23.90;4.07;;;;;;;;;;5061030;28;20507;-82
2024/01/26 13:49:55;;;;;;;17.15;2.92;;;;;;;;;;5083725;28;20354;-82
2024/01/26 13:52:21;;;;;;;21.30;2.85;;;;;;;;;;5039134;28;20067;-82
2024/01/26 13:54:47;;;;;;;15.15;2.83;;;;;;;;;;5081292;28;20036;-82
2024/01/26 13:57:15;;;;;;;17.70;3.13;;;;;;;;;;5051274;28;20075;-82
2024/01/26 13:59:41;;;;;;;21.98;3.20;;;;;;;;;;5076416;28;20043;-82
2024/01/26 14:02:07;;;;;;;19.75;3.00;;;;;;;;;;5078732;28;20106;-82
2024/01/26 14:04:33;;;;;;;22.63;3.72;;;;;;;;;;5087610;28;20065;-84
2024/01/26 14:07:00;;;;;;;16.30;3.08;;;;;;;;;;5079529;28;20040;-82
2024/01/26 14:09:26;;;;;;;17.58;3.60;;;;;;;;;;5050184;28;20040;-81
2024/01/26 14:11:53;;;;;;;27.45;2.70;;;;;;;;;;5062993;28;20553;-82
2024/01/26 14:14:22;;;;;;;24.25;3.30;;;;;;;;;;5058939;28;20132;-82
2024/01/26 14:16:48;;;;;;;34.85;3.72;;;;;;;;;;5058473;28;20496;-80
2024/01/26 14:19:14;;;;;;;18.40;3.55;;;;;;;;;;5075761;28;20100;-82